sensor_id;sensor_type;location;lat;lon;timestamp;temperature;humidity
2767;DHT22;1391;46.74287300;11.63683300;2023-07-28T00:01:16;14.80;99.90
2767;DHT22;1391;46.74287300;11.63683300;2023-07-28T00:03:43;14.80;99.90
2767;DHT22;1391;46.74287300;11.63683300;2023-07-28T00:06:10;14.80;99.90
2767;DHT22;1391;46.74287300;11.63683300;2023-07-28T00:08:38;14.90;99.90
2767;DHT22;1391;46.74287300;11.63683300;2023-07-28T00:11:09;14.80;99.90
2767;DHT22;1391;46.74287300;11.63683300;2023-07-28T00:13:37;14.90;99.90
2767;DHT22;1391;46.74287300;11.63683300;2023-07-28T00:16:05;14.80;99.90
2767;DHT22;1391;46.74287300;11.63683300;2023-07-28T00:18:34;14.80;99.90
2767;DHT22;1391;46.74287300;11.63683300;2023-07-28T00:21:01;14.90;99.90
2767;DHT22;1391;46.74287300;11.63683300;2023-07-28T00:23:31;15.20;99.90
2767;DHT22;1391;46.74287300;11.63683300;2023-07-28T00:25:58;14.90;99.90
2767;DHT22;1391;46.74287300;11.63683300;2023-07-28T00:28:25;14.80;99.90
2767;DHT22;1391;46.74287300;11.63683300;2023-07-28T00:30:52;14.90;99.90
2767;DHT22;1391;46.74287300;11.63683300;2023-07-28T00:33:20;14.80;99.90
2767;DHT22;1391;46.74287300;11.63683300;2023-07-28T00:35:49;14.90;99.90
2767;DHT22;1391;46.74287300;11.63683300;2023-07-28T00:38:16;14.70;99.90
2767;DHT22;1391;46.74287300;11.63683300;2023-07-28T00:40:43;14.90;99.90
2767;DHT22;1391;46.74287300;11.63683300;2023-07-28T00:43:10;14.80;99.90
2767;DHT22;1391;46.74287300;11.63683300;2023-07-28T00:45:38;14.90;99.90
2767;DHT22;1391;46.74287300;11.63683300;2023-07-28T00:48:10;14.80;99.90
2767;DHT22;1391;46.74287300;11.63683300;2023-07-28T00:50:40;14.90;99.90
2767;DHT22;1391;46.74287300;11.63683300;2023-07-28T00:53:09;15.20;99.90
2767;DHT22;1391;46.74287300;11.63683300;2023-07-28T00:55:37;14.90;99.90
2767;DHT22;1391;46.74287300;11.63683300;2023-07-28T00:58:04;15.20;99.90
2767;DHT22;1391;46.74287300;11.63683300;2023-07-28T01:00:31;14.90;99.90
2767;DHT22;1391;46.74287300;11.63683300;2023-07-28T01:02:59;14.80;99.90
2767;DHT22;1391;46.74287300;11.63683300;2023-07-28T01:05:36;14.90;99.90
2767;DHT22;1391;46.74287300;11.63683300;2023-07-28T01:08:14;14.80;99.90
2767;DHT22;1391;46.74287300;11.63683300;2023-07-28T01:10:43;14.80;99.90
2767;DHT22;1391;46.74287300;11.63683300;2023-07-28T01:13:11;14.80;99.90
2767;DHT22;1391;46.74287300;11.63683300;2023-07-28T01:15:38;14.90;99.90
2767;DHT22;1391;46.74287300;11.63683300;2023-07-28T01:18:05;14.80;99.90
2767;DHT22;1391;46.74287300;11.63683300;2023-07-28T01:20:33;14.80;99.90
2767;DHT22;1391;46.74287300;11.63683300;2023-07-28T01:23:16;14.80;99.90
2767;DHT22;1391;46.74287300;11.63683300;2023-07-28T01:25:55;14.90;99.90
2767;DHT22;1391;46.74287300;11.63683300;2023-07-28T01:28:32;14.80;99.90
2767;DHT22;1391;46.74287300;11.63683300;2023-07-28T01:31:01;14.80;99.90
2767;DHT22;1391;46.74287300;11.63683300;2023-07-28T01:33:28;14.80;99.90
2767;DHT22;1391;46.74287300;11.63683300;2023-07-28T01:35:56;14.80;99.90
2767;DHT22;1391;46.74287300;11.63683300;2023-07-28T01:38:24;14.80;99.90
2767;DHT22;1391;46.74287300;11.63683300;2023-07-28T01:40:51;14.80;99.90
2767;DHT22;1391;46.74287300;11.63683300;2023-07-28T01:43:18;14.90;99.90
2767;DHT22;1391;46.74287300;11.63683300;2023-07-28T01:45:47;14.80;99.90
2767;DHT22;1391;46.74287300;11.63683300;2023-07-28T01:48:14;14.80;99.90
2767;DHT22;1391;46.74287300;11.63683300;2023-07-28T01:50:41;14.40;99.90
2767;DHT22;1391;46.74287300;11.63683300;2023-07-28T01:53:08;14.30;99.90
2767;DHT22;1391;46.74287300;11.63683300;2023-07-28T01:55:35;14.40;99.90
2767;DHT22;1391;46.74287300;11.63683300;2023-07-28T01:58:02;14.70;99.90
2767;DHT22;1391;46.74287300;11.63683300;2023-07-28T02:00:30;14.70;99.90
2767;DHT22;1391;46.74287300;11.63683300;2023-07-28T02:02:58;14.40;99.90
2767;DHT22;1391;46.74287300;11.63683300;2023-07-28T02:05:27;14.30;99.90
2767;DHT22;1391;46.74287300;11.63683300;2023-07-28T02:07:55;14.40;99.90
2767;DHT22;1391;46.74287300;11.63683300;2023-07-28T02:10:23;14.30;99.90
2767;DHT22;1391;46.74287300;11.63683300;2023-07-28T02:12:50;14.30;99.90
2767;DHT22;1391;46.74287300;11.63683300;2023-07-28T02:15:18;14.30;99.90
2767;DHT22;1391;46.74287300;11.63683300;2023-07-28T02:17:45;14.30;99.90
2767;DHT22;1391;46.74287300;11.63683300;2023-07-28T02:20:14;14.40;99.90
2767;DHT22;1391;46.74287300;11.63683300;2023-07-28T02:22:41;14.20;99.90
2767;DHT22;1391;46.74287300;11.63683300;2023-07-28T02:25:09;14.20;99.90
2767;DHT22;1391;46.74287300;11.63683300;2023-07-28T02:27:37;14.20;99.90
2767;DHT22;1391;46.74287300;11.63683300;2023-07-28T02:30:05;13.70;99.90
2767;DHT22;1391;46.74287300;11.63683300;2023-07-28T02:32:33;14.10;99.90
2767;DHT22;1391;46.74287300;11.63683300;2023-07-28T02:35:00;13.50;99.90
2767;DHT22;1391;46.74287300;11.63683300;2023-07-28T02:37:29;14.10;99.90
2767;DHT22;1391;46.74287300;11.63683300;2023-07-28T02:39:56;13.50;99.90
2767;DHT22;1391;46.74287300;11.63683300;2023-07-28T02:42:23;13.40;99.90
2767;DHT22;1391;46.74287300;11.63683300;2023-07-28T02:44:51;13.50;99.90
2767;DHT22;1391;46.74287300;11.63683300;2023-07-28T02:47:18;14.00;99.90
2767;DHT22;1391;46.74287300;11.63683300;2023-07-28T02:49:46;13.70;99.90
2767;DHT22;1391;46.74287300;11.63683300;2023-07-28T02:52:13;13.70;99.90
2767;DHT22;1391;46.74287300;11.63683300;2023-07-28T02:54:41;13.70;99.90
2767;DHT22;1391;46.74287300;11.63683300;2023-07-28T02:57:08;13.30;99.90
2767;DHT22;1391;46.74287300;11.63683300;2023-07-28T02:59:36;13.70;99.90
2767;DHT22;1391;46.74287300;11.63683300;2023-07-28T03:02:03;13.30;99.90
2767;DHT22;1391;46.74287300;11.63683300;2023-07-28T03:04:30;13.60;99.90
2767;DHT22;1391;46.74287300;11.63683300;2023-07-28T03:06:57;13.40;99.90
2767;DHT22;1391;46.74287300;11.63683300;2023-07-28T03:09:25;13.40;99.90
2767;DHT22;1391;46.74287300;11.63683300;2023-07-28T03:11:53;13.50;99.90
2767;DHT22;1391;46.74287300;11.63683300;2023-07-28T03:14:21;13.00;99.90
2767;DHT22;1391;46.74287300;11.63683300;2023-07-28T03:16:48;13.20;99.90
2767;DHT22;1391;46.74287300;11.63683300;2023-07-28T03:19:15;12.90;99.90
2767;DHT22;1391;46.74287300;11.63683300;2023-07-28T03:21:43;13.00;99.90
2767;DHT22;1391;46.74287300;11.63683300;2023-07-28T03:24:10;13.10;99.90
2767;DHT22;1391;46.74287300;11.63683300;2023-07-28T03:26:37;13.00;99.90
2767;DHT22;1391;46.74287300;11.63683300;2023-07-28T03:29:06;13.00;99.90
2767;DHT22;1391;46.74287300;11.63683300;2023-07-28T03:31:33;13.00;99.90
2767;DHT22;1391;46.74287300;11.63683300;2023-07-28T03:34:01;13.10;99.90
2767;DHT22;1391;46.74287300;11.63683300;2023-07-28T03:36:28;12.90;99.90
2767;DHT22;1391;46.74287300;11.63683300;2023-07-28T03:38:56;13.00;99.90
2767;DHT22;1391;46.74287300;11.63683300;2023-07-28T03:41:23;13.00;99.90
2767;DHT22;1391;46.74287300;11.63683300;2023-07-28T03:43:50;13.10;99.90
2767;DHT22;1391;46.74287300;11.63683300;2023-07-28T03:46:19;12.90;99.90
2767;DHT22;1391;46.74287300;11.63683300;2023-07-28T03:48:46;13.00;99.90
2767;DHT22;1391;46.74287300;11.63683300;2023-07-28T03:51:13;13.10;99.90
2767;DHT22;1391;46.74287300;11.63683300;2023-07-28T03:53:41;13.00;99.90
2767;DHT22;1391;46.74287300;11.63683300;2023-07-28T03:56:08;13.10;99.90
2767;DHT22;1391;46.74287300;11.63683300;2023-07-28T03:58:35;13.00;99.90
2767;DHT22;1391;46.74287300;11.63683300;2023-07-28T04:01:02;13.10;99.90
2767;DHT22;1391;46.74287300;11.63683300;2023-07-28T04:03:34;12.90;99.90
2767;DHT22;1391;46.74287300;11.63683300;2023-07-28T04:06:05;13.10;99.90
2767;DHT22;1391;46.74287300;11.63683300;2023-07-28T04:08:36;12.60;99.90
2767;DHT22;1391;46.74287300;11.63683300;2023-07-28T04:11:03;12.90;99.90
2767;DHT22;1391;46.74287300;11.63683300;2023-07-28T04:13:30;13.00;99.90
2767;DHT22;1391;46.74287300;11.63683300;2023-07-28T04:15:58;12.40;99.90
2767;DHT22;1391;46.74287300;11.63683300;2023-07-28T04:18:25;12.80;99.90
2767;DHT22;1391;46.74287300;11.63683300;2023-07-28T04:20:53;12.50;99.90
2767;DHT22;1391;46.74287300;11.63683300;2023-07-28T04:23:21;12.40;99.90
2767;DHT22;1391;46.74287300;11.63683300;2023-07-28T04:25:48;12.50;99.90
2767;DHT22;1391;46.74287300;11.63683300;2023-07-28T04:28:15;12.40;99.90
2767;DHT22;1391;46.74287300;11.63683300;2023-07-28T04:30:42;12.90;99.90
2767;DHT22;1391;46.74287300;11.63683300;2023-07-28T04:33:10;13.00;99.90
2767;DHT22;1391;46.74287300;11.63683300;2023-07-28T04:35:37;12.80;99.90
2767;DHT22;1391;46.74287300;11.63683300;2023-07-28T04:38:05;12.80;99.90
2767;DHT22;1391;46.74287300;11.63683300;2023-07-28T04:40:33;12.80;99.90
2767;DHT22;1391;46.74287300;11.63683300;2023-07-28T04:43:00;12.80;99.90
2767;DHT22;1391;46.74287300;11.63683300;2023-07-28T04:45:27;12.80;99.90
2767;DHT22;1391;46.74287300;11.63683300;2023-07-28T04:47:54;12.80;99.90
2767;DHT22;1391;46.74287300;11.63683300;2023-07-28T04:50:21;13.60;99.90
2767;DHT22;1391;46.74287300;11.63683300;2023-07-28T04:52:48;13.40;99.90
2767;DHT22;1391;46.74287300;11.63683300;2023-07-28T04:55:17;13.40;99.90
2767;DHT22;1391;46.74287300;11.63683300;2023-07-28T04:57:44;13.50;99.90
2767;DHT22;1391;46.74287300;11.63683300;2023-07-28T05:00:12;13.40;99.90
2767;DHT22;1391;46.74287300;11.63683300;2023-07-28T05:02:40;13.80;99.90
2767;DHT22;1391;46.74287300;11.63683300;2023-07-28T05:05:07;13.80;99.90
2767;DHT22;1391;46.74287300;11.63683300;2023-07-28T05:07:35;13.80;99.90
2767;DHT22;1391;46.74287300;11.63683300;2023-07-28T05:10:02;13.90;99.90
2767;DHT22;1391;46.74287300;11.63683300;2023-07-28T05:12:31;14.40;99.90
2767;DHT22;1391;46.74287300;11.63683300;2023-07-28T05:14:59;14.30;99.90
2767;DHT22;1391;46.74287300;11.63683300;2023-07-28T05:17:26;14.40;99.90
2767;DHT22;1391;46.74287300;11.63683300;2023-07-28T05:19:53;14.30;99.90
2767;DHT22;1391;46.74287300;11.63683300;2023-07-28T05:22:20;14.30;99.90
2767;DHT22;1391;46.74287300;11.63683300;2023-07-28T05:24:47;14.40;99.90
2767;DHT22;1391;46.74287300;11.63683300;2023-07-28T05:27:15;14.30;99.90
2767;DHT22;1391;46.74287300;11.63683300;2023-07-28T05:29:43;14.30;99.90
2767;DHT22;1391;46.74287300;11.63683300;2023-07-28T05:32:11;14.40;99.90
2767;DHT22;1391;46.74287300;11.63683300;2023-07-28T05:34:41;14.30;99.90
2767;DHT22;1391;46.74287300;11.63683300;2023-07-28T05:37:08;14.40;99.90
2767;DHT22;1391;46.74287300;11.63683300;2023-07-28T05:39:35;14.30;99.90
2767;DHT22;1391;46.74287300;11.63683300;2023-07-28T05:42:03;14.40;99.90
2767;DHT22;1391;46.74287300;11.63683300;2023-07-28T05:44:30;14.30;99.90
2767;DHT22;1391;46.74287300;11.63683300;2023-07-28T05:46:59;14.80;99.90
2767;DHT22;1391;46.74287300;11.63683300;2023-07-28T05:49:26;14.80;99.90
2767;DHT22;1391;46.74287300;11.63683300;2023-07-28T05:51:53;14.80;99.90
2767;DHT22;1391;46.74287300;11.63683300;2023-07-28T05:54:21;14.90;99.90
2767;DHT22;1391;46.74287300;11.63683300;2023-07-28T05:56:48;14.80;99.90
2767;DHT22;1391;46.74287300;11.63683300;2023-07-28T05:59:15;14.90;99.90
2767;DHT22;1391;46.74287300;11.63683300;2023-07-28T06:01:43;14.80;99.90
2767;DHT22;1391;46.74287300;11.63683300;2023-07-28T06:04:12;14.90;99.90
2767;DHT22;1391;46.74287300;11.63683300;2023-07-28T06:06:39;15.20;99.90
2767;DHT22;1391;46.74287300;11.63683300;2023-07-28T06:09:06;15.20;99.90
2767;DHT22;1391;46.74287300;11.63683300;2023-07-28T06:11:33;15.30;99.90
2767;DHT22;1391;46.74287300;11.63683300;2023-07-28T06:14:00;15.50;99.90
2767;DHT22;1391;46.74287300;11.63683300;2023-07-28T06:16:28;15.30;99.90
2767;DHT22;1391;46.74287300;11.63683300;2023-07-28T06:18:55;15.40;99.90
2767;DHT22;1391;46.74287300;11.63683300;2023-07-28T06:21:23;15.20;99.90
2767;DHT22;1391;46.74287300;11.63683300;2023-07-28T06:23:51;15.30;99.90
2767;DHT22;1391;46.74287300;11.63683300;2023-07-28T06:26:18;15.50;99.90
2767;DHT22;1391;46.74287300;11.63683300;2023-07-28T06:28:45;15.40;99.90
2767;DHT22;1391;46.74287300;11.63683300;2023-07-28T06:31:13;16.00;99.90
2767;DHT22;1391;46.74287300;11.63683300;2023-07-28T06:33:40;16.10;97.80
2767;DHT22;1391;46.74287300;11.63683300;2023-07-28T06:36:07;15.90;97.60
2767;DHT22;1391;46.74287300;11.63683300;2023-07-28T06:38:35;15.90;96.20
2767;DHT22;1391;46.74287300;11.63683300;2023-07-28T06:41:03;16.10;98.90
2767;DHT22;1391;46.74287300;11.63683300;2023-07-28T06:43:31;16.20;93.80
2767;DHT22;1391;46.74287300;11.63683300;2023-07-28T06:45:58;16.10;93.00
2767;DHT22;1391;46.74287300;11.63683300;2023-07-28T06:48:26;15.90;94.90
2767;DHT22;1391;46.74287300;11.63683300;2023-07-28T06:50:53;16.60;91.70
2767;DHT22;1391;46.74287300;11.63683300;2023-07-28T06:53:21;16.30;89.80
2767;DHT22;1391;46.74287300;11.63683300;2023-07-28T06:55:49;16.80;87.90
2767;DHT22;1391;46.74287300;11.63683300;2023-07-28T06:58:17;17.30;89.60
2767;DHT22;1391;46.74287300;11.63683300;2023-07-28T07:00:44;17.30;88.90
2767;DHT22;1391;46.74287300;11.63683300;2023-07-28T07:03:11;17.20;83.10
2767;DHT22;1391;46.74287300;11.63683300;2023-07-28T07:05:39;17.90;82.30
2767;DHT22;1391;46.74287300;11.63683300;2023-07-28T07:08:06;17.80;77.60
2767;DHT22;1391;46.74287300;11.63683300;2023-07-28T07:10:34;17.90;82.30
2767;DHT22;1391;46.74287300;11.63683300;2023-07-28T07:13:02;18.20;80.50
2767;DHT22;1391;46.74287300;11.63683300;2023-07-28T07:15:30;18.40;78.10
2767;DHT22;1391;46.74287300;11.63683300;2023-07-28T07:17:57;18.80;76.10
2767;DHT22;1391;46.74287300;11.63683300;2023-07-28T07:20:24;18.70;74.10
2767;DHT22;1391;46.74287300;11.63683300;2023-07-28T07:22:52;19.00;70.30
2767;DHT22;1391;46.74287300;11.63683300;2023-07-28T07:25:19;18.50;68.90
2767;DHT22;1391;46.74287300;11.63683300;2023-07-28T07:27:47;19.00;76.90
2767;DHT22;1391;46.74287300;11.63683300;2023-07-28T07:30:16;18.80;68.20
2767;DHT22;1391;46.74287300;11.63683300;2023-07-28T07:32:43;19.10;71.50
2767;DHT22;1391;46.74287300;11.63683300;2023-07-28T07:35:11;19.10;66.10
2767;DHT22;1391;46.74287300;11.63683300;2023-07-28T07:37:38;19.40;64.30
2767;DHT22;1391;46.74287300;11.63683300;2023-07-28T07:40:07;19.60;63.20
2767;DHT22;1391;46.74287300;11.63683300;2023-07-28T07:42:41;19.60;60.70
2767;DHT22;1391;46.74287300;11.63683300;2023-07-28T07:45:10;20.40;63.50
2767;DHT22;1391;46.74287300;11.63683300;2023-07-28T07:47:40;20.40;56.10
2767;DHT22;1391;46.74287300;11.63683300;2023-07-28T07:50:08;19.80;57.80
2767;DHT22;1391;46.74287300;11.63683300;2023-07-28T07:52:36;20.40;57.20
2767;DHT22;1391;46.74287300;11.63683300;2023-07-28T07:55:04;20.20;54.30
2767;DHT22;1391;46.74287300;11.63683300;2023-07-28T07:57:32;20.30;61.60
2767;DHT22;1391;46.74287300;11.63683300;2023-07-28T07:59:59;21.00;54.30
2767;DHT22;1391;46.74287300;11.63683300;2023-07-28T08:02:27;20.30;54.00
2767;DHT22;1391;46.74287300;11.63683300;2023-07-28T08:04:55;21.00;53.90
2767;DHT22;1391;46.74287300;11.63683300;2023-07-28T08:07:22;20.80;54.40
2767;DHT22;1391;46.74287300;11.63683300;2023-07-28T08:09:50;21.00;51.70
2767;DHT22;1391;46.74287300;11.63683300;2023-07-28T08:12:17;21.70;60.70
2767;DHT22;1391;46.74287300;11.63683300;2023-07-28T08:14:45;21.70;50.40
2767;DHT22;1391;46.74287300;11.63683300;2023-07-28T08:17:12;21.90;47.50
2767;DHT22;1391;46.74287300;11.63683300;2023-07-28T08:19:39;21.00;47.70
2767;DHT22;1391;46.74287300;11.63683300;2023-07-28T08:22:08;21.00;46.20
2767;DHT22;1391;46.74287300;11.63683300;2023-07-28T08:24:35;21.00;46.50
2767;DHT22;1391;46.74287300;11.63683300;2023-07-28T08:27:03;21.00;48.30
2767;DHT22;1391;46.74287300;11.63683300;2023-07-28T08:29:31;20.90;52.20
2767;DHT22;1391;46.74287300;11.63683300;2023-07-28T08:31:58;21.10;54.30
2767;DHT22;1391;46.74287300;11.63683300;2023-07-28T08:34:25;21.60;49.50
2767;DHT22;1391;46.74287300;11.63683300;2023-07-28T08:36:53;21.70;53.00
2767;DHT22;1391;46.74287300;11.63683300;2023-07-28T08:39:21;21.90;44.20
2767;DHT22;1391;46.74287300;11.63683300;2023-07-28T08:41:57;22.60;42.30
2767;DHT22;1391;46.74287300;11.63683300;2023-07-28T08:44:26;21.60;43.50
2767;DHT22;1391;46.74287300;11.63683300;2023-07-28T08:46:53;22.50;49.70
2767;DHT22;1391;46.74287300;11.63683300;2023-07-28T08:49:21;21.80;43.80
2767;DHT22;1391;46.74287300;11.63683300;2023-07-28T08:51:49;22.40;43.60
2767;DHT22;1391;46.74287300;11.63683300;2023-07-28T08:54:17;22.20;43.20
2767;DHT22;1391;46.74287300;11.63683300;2023-07-28T08:56:45;22.60;43.50
2767;DHT22;1391;46.74287300;11.63683300;2023-07-28T08:59:20;22.40;49.90
2767;DHT22;1391;46.74287300;11.63683300;2023-07-28T09:01:50;22.70;43.10
2767;DHT22;1391;46.74287300;11.63683300;2023-07-28T09:04:17;22.70;46.50
2767;DHT22;1391;46.74287300;11.63683300;2023-07-28T09:06:46;22.60;41.20
2767;DHT22;1391;46.74287300;11.63683300;2023-07-28T09:09:13;23.20;48.30
2767;DHT22;1391;46.74287300;11.63683300;2023-07-28T09:11:46;22.80;44.60
2767;DHT22;1391;46.74287300;11.63683300;2023-07-28T09:14:15;22.70;54.10
2767;DHT22;1391;46.74287300;11.63683300;2023-07-28T09:16:43;22.30;42.50
2767;DHT22;1391;46.74287300;11.63683300;2023-07-28T09:19:11;22.00;47.10
2767;DHT22;1391;46.74287300;11.63683300;2023-07-28T09:21:40;22.70;57.90
2767;DHT22;1391;46.74287300;11.63683300;2023-07-28T09:24:10;22.70;48.00
2767;DHT22;1391;46.74287300;11.63683300;2023-07-28T09:26:38;23.60;58.40
2767;DHT22;1391;46.74287300;11.63683300;2023-07-28T09:29:17;23.50;46.30
2767;DHT22;1391;46.74287300;11.63683300;2023-07-28T09:31:46;23.40;44.30
2767;DHT22;1391;46.74287300;11.63683300;2023-07-28T09:34:23;22.70;47.80
2767;DHT22;1391;46.74287300;11.63683300;2023-07-28T09:36:53;21.70;45.40
2767;DHT22;1391;46.74287300;11.63683300;2023-07-28T09:39:21;21.60;47.00
2767;DHT22;1391;46.74287300;11.63683300;2023-07-28T09:41:49;22.00;53.60
2767;DHT22;1391;46.74287300;11.63683300;2023-07-28T09:44:17;22.00;52.60
2767;DHT22;1391;46.74287300;11.63683300;2023-07-28T09:46:49;21.90;49.30
2767;DHT22;1391;46.74287300;11.63683300;2023-07-28T09:49:20;21.70;54.40
2767;DHT22;1391;46.74287300;11.63683300;2023-07-28T09:51:49;21.80;53.20
2767;DHT22;1391;46.74287300;11.63683300;2023-07-28T09:54:23;22.00;53.40
2767;DHT22;1391;46.74287300;11.63683300;2023-07-28T09:56:55;21.90;53.30
2767;DHT22;1391;46.74287300;11.63683300;2023-07-28T09:59:29;21.80;47.80
2767;DHT22;1391;46.74287300;11.63683300;2023-07-28T10:01:59;22.60;50.20
2767;DHT22;1391;46.74287300;11.63683300;2023-07-28T10:04:27;23.60;65.20
2767;DHT22;1391;46.74287300;11.63683300;2023-07-28T10:06:56;23.40;42.00
2767;DHT22;1391;46.74287300;11.63683300;2023-07-28T10:09:24;23.40;38.60
2767;DHT22;1391;46.74287300;11.63683300;2023-07-28T10:11:51;23.70;39.90
2767;DHT22;1391;46.74287300;11.63683300;2023-07-28T10:14:27;23.50;41.30
2767;DHT22;1391;46.74287300;11.63683300;2023-07-28T10:16:56;24.30;36.50
2767;DHT22;1391;46.74287300;11.63683300;2023-07-28T10:19:24;24.40;34.50
2767;DHT22;1391;46.74287300;11.63683300;2023-07-28T10:21:59;24.50;30.50
2767;DHT22;1391;46.74287300;11.63683300;2023-07-28T10:24:49;24.70;32.40
2767;DHT22;1391;46.74287300;11.63683300;2023-07-28T10:27:32;24.40;28.60
2767;DHT22;1391;46.74287300;11.63683300;2023-07-28T10:30:07;24.60;31.80
2767;DHT22;1391;46.74287300;11.63683300;2023-07-28T10:32:38;25.10;27.10
2767;DHT22;1391;46.74287300;11.63683300;2023-07-28T10:35:23;25.50;29.00
2767;DHT22;1391;46.74287300;11.63683300;2023-07-28T10:37:50;25.60;34.10
2767;DHT22;1391;46.74287300;11.63683300;2023-07-28T10:40:28;25.70;25.70
2767;DHT22;1391;46.74287300;11.63683300;2023-07-28T10:42:57;25.30;27.30
2767;DHT22;1391;46.74287300;11.63683300;2023-07-28T10:45:27;25.50;26.10
2767;DHT22;1391;46.74287300;11.63683300;2023-07-28T10:47:55;25.50;23.70
2767;DHT22;1391;46.74287300;11.63683300;2023-07-28T10:50:27;25.50;24.00
2767;DHT22;1391;46.74287300;11.63683300;2023-07-28T10:52:56;25.50;26.00
2767;DHT22;1391;46.74287300;11.63683300;2023-07-28T10:55:24;25.70;23.80
2767;DHT22;1391;46.74287300;11.63683300;2023-07-28T10:57:54;25.70;23.60
2767;DHT22;1391;46.74287300;11.63683300;2023-07-28T11:00:24;26.40;21.30
2767;DHT22;1391;46.74287300;11.63683300;2023-07-28T11:02:54;25.40;24.40
2767;DHT22;1391;46.74287300;11.63683300;2023-07-28T11:05:22;25.80;22.40
2767;DHT22;1391;46.74287300;11.63683300;2023-07-28T11:07:54;25.70;21.60
2767;DHT22;1391;46.74287300;11.63683300;2023-07-28T11:10:22;25.60;23.10
2767;DHT22;1391;46.74287300;11.63683300;2023-07-28T11:12:51;25.80;21.70
2767;DHT22;1391;46.74287300;11.63683300;2023-07-28T11:15:19;25.60;21.60
2767;DHT22;1391;46.74287300;11.63683300;2023-07-28T11:17:49;25.70;21.40
2767;DHT22;1391;46.74287300;11.63683300;2023-07-28T11:20:17;25.60;21.70
2767;DHT22;1391;46.74287300;11.63683300;2023-07-28T11:22:52;25.60;20.70
2767;DHT22;1391;46.74287300;11.63683300;2023-07-28T11:25:20;25.80;23.10
2767;DHT22;1391;46.74287300;11.63683300;2023-07-28T11:27:48;26.40;20.90
2767;DHT22;1391;46.74287300;11.63683300;2023-07-28T11:30:17;25.60;21.50
2767;DHT22;1391;46.74287300;11.63683300;2023-07-28T11:32:46;26.40;23.50
2767;DHT22;1391;46.74287300;11.63683300;2023-07-28T11:35:16;26.40;22.20
2767;DHT22;1391;46.74287300;11.63683300;2023-07-28T11:37:46;26.60;22.50
2767;DHT22;1391;46.74287300;11.63683300;2023-07-28T11:40:15;26.60;23.20
2767;DHT22;1391;46.74287300;11.63683300;2023-07-28T11:42:45;26.50;24.30
2767;DHT22;1391;46.74287300;11.63683300;2023-07-28T11:45:16;26.50;21.60
2767;DHT22;1391;46.74287300;11.63683300;2023-07-28T11:47:56;25.90;22.00
2767;DHT22;1391;46.74287300;11.63683300;2023-07-28T11:50:25;26.00;23.20
2767;DHT22;1391;46.74287300;11.63683300;2023-07-28T11:52:54;26.50;20.50
2767;DHT22;1391;46.74287300;11.63683300;2023-07-28T11:55:23;26.30;22.80
2767;DHT22;1391;46.74287300;11.63683300;2023-07-28T11:57:51;26.50;22.00
2767;DHT22;1391;46.74287300;11.63683300;2023-07-28T12:00:22;26.50;23.10
2767;DHT22;1391;46.74287300;11.63683300;2023-07-28T12:03:03;26.70;23.30
2767;DHT22;1391;46.74287300;11.63683300;2023-07-28T12:05:31;26.80;22.10
2767;DHT22;1391;46.74287300;11.63683300;2023-07-28T12:08:01;26.80;22.60
2767;DHT22;1391;46.74287300;11.63683300;2023-07-28T12:10:28;26.50;20.50
2767;DHT22;1391;46.74287300;11.63683300;2023-07-28T12:12:57;26.70;22.80
2767;DHT22;1391;46.74287300;11.63683300;2023-07-28T12:15:31;26.70;21.40
2767;DHT22;1391;46.74287300;11.63683300;2023-07-28T12:18:06;26.50;23.50
2767;DHT22;1391;46.74287300;11.63683300;2023-07-28T12:20:36;26.70;21.70
2767;DHT22;1391;46.74287300;11.63683300;2023-07-28T12:23:04;26.80;21.50
2767;DHT22;1391;46.74287300;11.63683300;2023-07-28T12:25:32;26.60;18.30
2767;DHT22;1391;46.74287300;11.63683300;2023-07-28T12:28:00;26.50;19.00
2767;DHT22;1391;46.74287300;11.63683300;2023-07-28T12:30:27;26.00;20.90
2767;DHT22;1391;46.74287300;11.63683300;2023-07-28T12:32:55;25.90;20.10
2767;DHT22;1391;46.74287300;11.63683300;2023-07-28T12:35:24;26.00;20.80
2767;DHT22;1391;46.74287300;11.63683300;2023-07-28T12:37:54;25.80;19.40
2767;DHT22;1391;46.74287300;11.63683300;2023-07-28T12:40:22;25.70;20.60
2767;DHT22;1391;46.74287300;11.63683300;2023-07-28T12:42:49;26.80;21.70
2767;DHT22;1391;46.74287300;11.63683300;2023-07-28T12:45:16;26.90;20.20
2767;DHT22;1391;46.74287300;11.63683300;2023-07-28T12:47:44;27.10;19.80
2767;DHT22;1391;46.74287300;11.63683300;2023-07-28T12:50:11;26.90;20.60
2767;DHT22;1391;46.74287300;11.63683300;2023-07-28T12:52:40;26.90;19.10
2767;DHT22;1391;46.74287300;11.63683300;2023-07-28T12:55:08;26.80;19.60
2767;DHT22;1391;46.74287300;11.63683300;2023-07-28T12:57:35;26.80;18.90
2767;DHT22;1391;46.74287300;11.63683300;2023-07-28T13:00:03;26.40;20.50
2767;DHT22;1391;46.74287300;11.63683300;2023-07-28T13:02:38;26.60;19.70
2767;DHT22;1391;46.74287300;11.63683300;2023-07-28T13:05:06;26.70;22.30
2767;DHT22;1391;46.74287300;11.63683300;2023-07-28T13:07:36;26.50;21.10
2767;DHT22;1391;46.74287300;11.63683300;2023-07-28T13:10:07;25.80;20.50
2767;DHT22;1391;46.74287300;11.63683300;2023-07-28T13:12:35;26.40;20.90
2767;DHT22;1391;46.74287300;11.63683300;2023-07-28T13:15:03;26.60;23.30
2767;DHT22;1391;46.74287300;11.63683300;2023-07-28T13:17:31;26.80;23.40
2767;DHT22;1391;46.74287300;11.63683300;2023-07-28T13:19:58;26.90;20.00
2767;DHT22;1391;46.74287300;11.63683300;2023-07-28T13:22:25;26.60;21.20
2767;DHT22;1391;46.74287300;11.63683300;2023-07-28T13:24:53;26.80;19.30
2767;DHT22;1391;46.74287300;11.63683300;2023-07-28T13:27:22;26.80;19.30
2767;DHT22;1391;46.74287300;11.63683300;2023-07-28T13:29:49;26.70;20.10
2767;DHT22;1391;46.74287300;11.63683300;2023-07-28T13:32:17;26.40;20.00
2767;DHT22;1391;46.74287300;11.63683300;2023-07-28T13:34:45;26.40;21.50
2767;DHT22;1391;46.74287300;11.63683300;2023-07-28T13:37:12;26.50;22.90
2767;DHT22;1391;46.74287300;11.63683300;2023-07-28T13:39:40;26.70;23.20
2767;DHT22;1391;46.74287300;11.63683300;2023-07-28T13:42:08;26.30;20.60